Portada
METAR-TAF:

METAR-TAF

Aeroports :

Gabès, Tunísia

latitud: 33-53N, longitud: 010-06E, altitud: 4 m

Observació

L'informe es va fer fa 19 minuts, a les 04:00 UTC
Vent 8 kt del Est
Temperatura 25°C
Humitat 83%
Pressió 1014 hPa
Visibilitat 10 km o més
sense núvols per sota de 1500 mi sense presència de cumulonimbus.

METAR: DTTG 180400Z 09008KT CAVOK 25/22 Q1014 NOSIG

Hora: 05:19 (04:19 UTC)

Pronòstic

L'informe es va fer fa 29 minuts, a les 03:50 UTC
Pronòstic vàlid del 18 a les 04 UTC al 18 a les 13 UTC
Vent 12 kt del Est
Visibilitat 10 km o més
Escasses núvols a una alçada de 2300 ft

TAF: DTTG 180350Z 1804/1813 09012KT 9999 FEW023

Observacions i pronòstics meteorològics de més de 4000 aeroports (METAR i TAF).

Les estacions disponibles són els punts grocs i vermells al mapa.

Posi el ratolí al punt desitjat per veure el nom de l'estació.

Feu clic per veure les observacions i els pronòstics meteorològics.

Per canviar el mapa: feu clic els botons verds amb una creu de color negre per apropar; al botó verd amb un guió per allunyar la imatge; o en les fletxes verdes per a mapes adjacents.


METAR-TAF: